Time;durP1;ratioP1;P1;durP2;ratioP2;P2;SDS_P1;SDS_P2;PMS_P1;PMS_P2;Temp;Humidity;BMP_temperature;BMP_pressure;BME280_temperature;BME280_humidity;BME280_pressure;Samples;Min_cycle;Max_cycle;Signal;HPM_P1;HPM_P2
2022/01/19 00:01:16;;;;;;;7.93;5.20;;;;;;;2.78;100.00;102254.38;5068792;28;20174;-72
2022/01/19 00:03:41;;;;;;;6.47;5.80;;;;;;;2.82;100.00;102257.47;5069058;28;20166;-72
2022/01/19 00:06:07;;;;;;;12.70;5.27;;;;;;;2.74;100.00;102257.72;5068828;28;20654;-72
2022/01/19 00:08:32;;;;;;;8.37;4.30;;;;;;;2.73;100.00;102259.59;5068748;28;20194;-72
2022/01/19 00:10:58;;;;;;;12.77;6.23;;;;;;;2.68;100.00;102262.09;5068765;28;20179;-72
2022/01/19 00:13:24;;;;;;;5.90;4.53;;;;;;;2.58;100.00;102270.63;5068726;28;20585;-72
2022/01/19 00:15:51;;;;;;;5.37;4.87;;;;;;;2.49;100.00;102260.31;5068513;28;20207;-72
2022/01/19 00:18:19;;;;;;;7.77;5.10;;;;;;;2.39;100.00;102250.78;5070529;28;20546;-72
2022/01/19 00:20:45;;;;;;;7.50;4.73;;;;;;;2.35;100.00;102246.03;5072289;28;20177;-72
2022/01/19 00:23:11;;;;;;;6.90;4.27;;;;;;;2.37;100.00;102238.56;5073368;28;20194;-72
2022/01/19 00:25:37;;;;;;;11.03;5.50;;;;;;;2.30;100.00;102235.88;5073772;28;20458;-72
2022/01/19 00:28:03;;;;;;;5.97;4.57;;;;;;;2.14;100.00;102220.16;5073240;28;20167;-72
2022/01/19 00:30:29;;;;;;;6.30;4.27;;;;;;;2.07;100.00;102206.72;5073341;28;20417;-72
2022/01/19 00:32:54;;;;;;;5.97;4.47;;;;;;;1.96;100.00;102191.19;5072072;28;20630;-72
2022/01/19 00:35:20;;;;;;;8.33;6.43;;;;;;;1.90;100.00;102183.13;5071901;28;20682;-72
2022/01/19 00:37:45;;;;;;;7.97;3.87;;;;;;;1.81;100.00;102179.00;5073214;28;20175;-72
2022/01/19 00:40:14;;;;;;;7.10;4.17;;;;;;;1.59;100.00;102190.03;5072951;28;20536;-72
2022/01/19 00:42:43;;;;;;;4.37;3.33;;;;;;;1.48;100.00;102185.25;5073038;28;20190;-73
2022/01/19 00:45:10;;;;;;;5.10;4.43;;;;;;;1.48;100.00;102179.88;5073123;28;20185;-72
2022/01/19 00:47:35;;;;;;;5.43;4.37;;;;;;;1.73;100.00;102177.31;5073003;28;20425;-73
2022/01/19 00:50:02;;;;;;;6.77;5.27;;;;;;;1.85;100.00;102180.22;5072066;28;20456;-73
2022/01/19 00:52:27;;;;;;;6.03;4.77;;;;;;;1.79;100.00;102180.03;5073003;28;20175;-73
2022/01/19 00:54:53;;;;;;;5.80;4.77;;;;;;;1.77;100.00;102189.38;5072870;28;20681;-73
2022/01/19 00:57:18;;;;;;;7.50;3.60;;;;;;;1.67;100.00;102180.88;5072967;28;20211;-72
2022/01/19 00:59:44;;;;;;;5.37;4.33;;;;;;;1.59;100.00;102176.56;5072881;28;20173;-73
2022/01/19 01:02:09;;;;;;;6.87;3.53;;;;;;;1.57;100.00;102167.81;5072911;28;20812;-73
2022/01/19 01:04:35;;;;;;;8.77;4.67;;;;;;;1.54;100.00;102168.25;5072618;28;20173;-72
2022/01/19 01:07:00;;;;;;;9.73;4.77;;;;;;;1.54;100.00;102167.41;5072633;28;20178;-72
2022/01/19 01:09:26;;;;;;;8.10;4.60;;;;;;;1.51;100.00;102184.00;5072549;28;20613;-72
2022/01/19 01:12:01;;;;;;;7.20;3.80;;;;;;;1.38;100.00;102163.28;5072485;28;20257;-72
2022/01/19 01:20:00;;;;;;;8.17;4.20;;;;;;;1.35;100.00;102159.16;5072422;28;20185;-73
2022/01/19 01:22:26;;;;;;;3.90;3.17;;;;;;;1.35;100.00;102155.63;5072384;28;20178;-72
2022/01/19 01:24:51;;;;;;;6.03;5.13;;;;;;;1.34;100.00;102151.28;5070679;28;20616;-73
2022/01/19 01:27:17;;;;;;;6.27;4.37;;;;;;;1.38;100.00;102137.19;5072270;28;20245;-72
2022/01/19 01:29:42;;;;;;;11.57;4.87;;;;;;;1.39;100.00;102132.63;5071130;28;20245;-72
2022/01/19 01:32:08;;;;;;;10.27;3.90;;;;;;;1.37;100.00;102119.38;5072006;28;20606;-72
2022/01/19 01:34:34;;;;;;;5.90;4.57;;;;;;;1.34;100.00;102121.69;5070717;28;20170;-72
2022/01/19 01:36:59;;;;;;;9.83;3.77;;;;;;;1.34;100.00;102110.91;5070547;28;20171;-72
2022/01/19 01:39:25;;;;;;;4.47;4.07;;;;;;;1.36;100.00;102098.06;5070606;28;20642;-72
2022/01/19 01:41:50;;;;;;;4.60;3.30;;;;;;;1.26;100.00;102097.66;5070646;28;20173;-72
2022/01/19 01:44:16;;;;;;;10.37;3.87;;;;;;;1.18;100.00;102085.25;5071932;28;20174;-73
2022/01/19 01:46:48;;;;;;;7.63;4.43;;;;;;;1.09;100.00;102071.16;5071678;28;20274;-72
2022/01/19 01:49:26;;;;;;;9.33;4.03;;;;;;;1.13;100.00;102069.69;5071669;28;20210;-72
2022/01/19 01:54:36;;;;;;;9.30;3.93;;;;;;;1.08;100.00;102061.44;5071924;28;20928;-72
2022/01/19 01:57:02;;;;;;;10.30;4.10;;;;;;;1.10;100.00;102050.47;5070282;28;20179;-72
2022/01/19 01:59:27;;;;;;;7.13;5.03;;;;;;;1.11;100.00;102069.09;5071961;28;20198;-72
2022/01/19 02:01:53;;;;;;;6.83;3.97;;;;;;;1.18;100.00;102069.91;5071329;28;20171;-73
2022/01/19 02:04:22;;;;;;;5.10;3.93;;;;;;;1.26;100.00;102057.25;5070073;28;20170;-72
2022/01/19 02:07:09;;;;;;;4.63;3.23;;;;;;;1.26;100.00;102052.72;5069966;28;20227;-72
2022/01/19 02:09:37;;;;;;;8.27;3.83;;;;;;;1.31;100.00;102039.47;5071197;28;20309;-72
2022/01/19 02:23:36;;;;;;;4.67;3.83;;;;;;;1.60;100.00;101994.22;5071409;28;20291;-72
2022/01/19 02:26:07;;;;;;;5.40;3.90;;;;;;;1.55;100.00;101994.00;5070930;28;20166;-73
2022/01/19 02:41:48;;;;;;;10.07;3.93;;;;;;;1.60;100.00;101960.03;5070574;28;20543;-72
2022/01/19 02:44:27;;;;;;;4.03;3.30;;;;;;;1.51;100.00;101953.22;5070809;28;20178;-73
2022/01/19 02:49:36;;;;;;;4.37;3.30;;;;;;;1.39;100.00;101957.63;5070790;28;20264;-73
2022/01/19 02:52:02;;;;;;;3.80;2.97;;;;;;;1.32;100.00;101944.19;5070699;28;20183;-72
2022/01/19 02:54:29;;;;;;;7.37;2.97;;;;;;;1.23;100.00;101928.47;5070590;28;20734;-72
2022/01/19 02:56:58;;;;;;;7.17;4.57;;;;;;;1.17;100.00;101919.41;5070612;28;20167;-73
2022/01/19 02:59:32;;;;;;;5.17;4.30;;;;;;;1.11;100.00;101913.00;5069241;28;20770;-72
2022/01/19 03:10:09;;;;;;;5.70;3.53;;;;;;;0.92;100.00;101907.69;5070504;28;20201;-73
2022/01/19 03:12:35;;;;;;;7.80;4.87;;;;;;;0.95;100.00;101893.78;5070696;28;20413;-73
2022/01/19 03:15:00;;;;;;;5.40;3.67;;;;;;;0.86;100.00;101887.81;5070696;28;20171;-73
2022/01/19 03:17:26;;;;;;;3.30;2.60;;;;;;;0.74;100.00;101870.69;5069229;28;20174;-72
2022/01/19 03:19:51;;;;;;;8.23;4.13;;;;;;;0.76;100.00;101869.44;5070338;28;20190;-73
2022/01/19 03:22:21;;;;;;;7.33;3.77;;;;;;;0.78;100.00;101866.53;5069085;28;20264;-72
2022/01/19 03:24:50;;;;;;;6.67;3.87;;;;;;;0.76;100.00;101869.44;5070663;28;20197;-73
2022/01/19 03:27:17;;;;;;;8.07;3.17;;;;;;;0.63;100.00;101863.28;5070439;28;20270;-72
2022/01/19 03:29:42;;;;;;;4.27;3.83;;;;;;;0.47;100.00;101864.53;5080651;28;20462;-72
2022/01/19 03:32:09;;;;;;;4.67;3.80;;;;;;;0.38;100.00;101855.84;5087127;28;20424;-72
2022/01/19 03:34:34;;;;;;;7.33;3.30;;;;;;;0.40;100.00;101829.59;5070340;28;20174;-73
2022/01/19 03:36:59;;;;;;;5.07;4.13;;;;;;;0.31;100.00;101833.56;5070148;28;20174;-73
2022/01/19 03:39:25;;;;;;;11.27;4.50;;;;;;;0.24;100.00;101828.16;5068781;28;20174;-73
2022/01/19 03:41:50;;;;;;;4.93;2.73;;;;;;;0.24;100.00;101821.97;5070465;28;20219;-72
2022/01/19 03:44:16;;;;;;;8.83;4.27;;;;;;;0.24;100.00;101824.66;5068817;28;20174;-72
2022/01/19 03:46:56;;;;;;;4.03;3.43;;;;;;;0.27;100.00;101821.53;5070028;28;20175;-72
2022/01/19 03:49:26;;;;;;;3.50;3.10;;;;;;;0.25;100.00;101824.44;5068888;28;20213;-73
2022/01/19 03:51:54;;;;;;;7.93;2.80;;;;;;;0.25;100.00;101820.94;5070065;28;20427;-72
2022/01/19 03:54:20;;;;;;;3.70;3.13;;;;;;;0.16;100.00;101820.34;5072387;28;20466;-75
2022/01/19 03:56:45;;;;;;;3.53;2.73;;;;;;;0.09;100.00;101808.75;5072472;28;20753;-73
2022/01/19 03:59:11;;;;;;;3.93;2.97;;;;;;;-0.04;100.00;101812.28;5072565;28;20185;-72
2022/01/19 04:01:36;;;;;;;4.00;2.63;;;;;;;-0.13;100.00;101807.34;5073802;28;20178;-72
2022/01/19 04:04:23;;;;;;;3.00;2.27;;;;;;;-0.15;100.00;101802.16;5073884;28;20213;-73
2022/01/19 04:09:17;;;;;;;2.80;2.53;;;;;;;-0.14;100.00;101793.09;5074052;28;20550;-73
2022/01/19 04:11:43;;;;;;;5.07;3.37;;;;;;;-0.13;100.00;101786.69;5072277;28;20519;-73
2022/01/19 04:14:27;;;;;;;6.07;3.10;;;;;;;-0.09;100.00;101777.16;5073617;28;20181;-72
2022/01/19 04:17:03;;;;;;;3.37;2.60;;;;;;;-0.01;100.00;101782.31;5072139;28;20637;-73
2022/01/19 04:21:57;;;;;;;3.07;2.73;;;;;;;0.05;100.00;101783.34;5073417;28;20424;-72
2022/01/19 04:24:24;;;;;;;8.07;4.27;;;;;;;0.10;100.00;101763.91;5073296;28;20891;-73
2022/01/19 04:29:34;;;;;;;6.73;3.20;;;;;;;0.19;100.00;101743.84;5073206;28;20505;-73
2022/01/19 04:32:08;;;;;;;3.60;3.30;;;;;;;0.28;100.00;101747.94;5073269;28;20409;-73
2022/01/19 04:34:37;;;;;;;6.73;5.03;;;;;;;0.36;100.00;101734.28;5073030;28;20646;-73
2022/01/19 05:01:51;;;;;;;4.60;3.93;;;;;;;-0.06;100.00;101717.66;5072514;28;20457;-73
2022/01/19 05:06:45;;;;;;;3.63;3.30;;;;;;;-0.08;100.00;101714.34;5072614;28;20959;-73
2022/01/19 05:09:51;;;;;;;6.27;2.77;;;;;;;-0.15;100.00;101716.22;5072357;28;20206;-72
2022/01/19 05:14:52;;;;;;;3.77;2.67;;;;;;;-0.28;100.00;101697.47;5072121;28;20408;-72
2022/01/19 05:17:17;;;;;;;9.73;4.47;;;;;;;-0.11;100.00;101695.16;5072435;28;20420;-73
2022/01/19 05:19:43;;;;;;;7.80;2.83;;;;;;;-0.02;100.00;101681.25;5072307;28;20174;-72
2022/01/19 05:22:08;;;;;;;5.20;3.23;;;;;;;0.07;100.00;101673.00;5070835;28;20177;-73
2022/01/19 05:24:33;;;;;;;7.43;3.77;;;;;;;0.13;100.00;101667.59;5070677;28;20198;-74
2022/01/19 05:26:58;;;;;;;3.33;3.03;;;;;;;0.20;100.00;101660.34;5070813;28;20179;-73
2022/01/19 05:29:24;;;;;;;7.87;5.43;;;;;;;0.32;100.00;101651.63;5072167;28;20202;-73
2022/01/19 05:31:49;;;;;;;13.63;6.00;;;;;;;0.39;100.00;101650.53;5070826;28;20561;-73
2022/01/19 05:34:14;;;;;;;7.00;4.97;;;;;;;0.54;100.00;101650.25;5070708;28;20175;-73
2022/01/19 05:36:40;;;;;;;8.20;6.13;;;;;;;0.57;100.00;101649.81;5070599;28;20718;-73
2022/01/19 05:39:05;;;;;;;7.73;5.47;;;;;;;0.58;100.00;101649.63;5071750;28;20604;-73
2022/01/19 05:41:32;;;;;;;9.17;5.67;;;;;;;0.69;100.00;101637.34;5070502;28;20609;-73
2022/01/19 05:43:58;;;;;;;11.07;4.73;;;;;;;0.71;100.00;101623.66;5070583;28;20174;-74
2022/01/19 05:46:23;;;;;;;7.13;5.77;;;;;;;0.74;100.00;101617.88;5070652;28;20925;-73
2022/01/19 05:48:48;;;;;;;8.63;6.27;;;;;;;0.59;100.00;101619.00;5067105;28;20240;-72
2022/01/19 05:51:14;;;;;;;11.70;6.37;;;;;;;0.66;100.00;101618.94;5070295;28;20186;-73
2022/01/19 05:53:39;;;;;;;14.93;6.80;;;;;;;0.70;100.00;101616.63;5071516;28;20544;-72
2022/01/19 05:56:06;;;;;;;9.63;4.63;;;;;;;0.85;100.00;101619.84;5071466;28;20667;-73
2022/01/19 05:58:31;;;;;;;2.73;2.63;;;;;;;0.92;100.00;101652.09;5071827;28;20182;-72
2022/01/19 06:00:56;;;;;;;4.00;3.67;;;;;;;0.96;100.00;101659.50;5079224;28;20478;-72
2022/01/19 06:03:22;;;;;;;1.57;1.30;;;;;;;1.19;100.00;101646.28;5077871;28;20179;-72
2022/01/19 06:05:47;;;;;;;8.93;6.43;;;;;;;1.26;100.00;101637.34;5071277;28;20186;-74
2022/01/19 06:10:54;;;;;;;9.60;7.07;;;;;;;1.24;100.00;101623.28;5073669;28;20173;-72
2022/01/19 06:13:21;;;;;;;6.93;4.97;;;;;;;1.34;100.00;101615.53;5083548;28;20507;-71
2022/01/19 06:15:47;;;;;;;6.90;5.93;;;;;;;1.28;100.00;101605.63;5071375;28;20428;-71
2022/01/19 06:18:14;;;;;;;10.10;6.70;;;;;;;1.22;100.00;101599.28;5069841;28;20319;-72
2022/01/19 06:20:41;;;;;;;2.63;1.67;;;;;;;1.29;100.00;101599.19;5070017;28;20775;-74
2022/01/19 06:23:06;;;;;;;0.97;0.97;;;;;;;1.50;100.00;101590.72;5071204;28;20194;-74
2022/01/19 06:25:32;;;;;;;2.60;2.43;;;;;;;1.55;100.00;101582.78;5071117;28;20905;-74
2022/01/19 06:27:57;;;;;;;1.07;1.03;;;;;;;1.58;100.00;101584.19;5069811;28;20179;-74
2022/01/19 06:30:23;;;;;;;4.83;4.03;;;;;;;1.59;100.00;101570.53;5069729;28;20206;-74
2022/01/19 06:32:48;;;;;;;1.27;1.27;;;;;;;1.59;100.00;101569.69;5071010;28;20185;-74
2022/01/19 06:35:14;;;;;;;5.53;5.03;;;;;;;1.55;100.00;101565.81;5069570;28;20687;-74
2022/01/19 06:37:40;;;;;;;7.67;6.93;;;;;;;1.50;100.00;101544.94;5070921;28;20240;-74
2022/01/19 06:40:07;;;;;;;6.23;5.63;;;;;;;1.51;100.00;101543.91;5070878;28;20174;-74
2022/01/19 06:42:33;;;;;;;9.67;5.90;;;;;;;1.38;100.00;101533.25;5070759;28;20538;-74
2022/01/19 06:44:58;;;;;;;11.40;6.23;;;;;;;1.41;100.00;101535.50;5070728;28;20245;-72
2022/01/19 06:47:23;;;;;;;7.53;6.17;;;;;;;1.38;100.00;101527.88;5070766;28;20228;-72
2022/01/19 06:49:49;;;;;;;8.33;6.77;;;;;;;1.39;100.00;101518.75;5069493;28;20426;-71
2022/01/19 06:52:14;;;;;;;6.50;5.23;;;;;;;1.29;100.00;101503.13;5071216;28;20622;-72
2022/01/19 06:54:40;;;;;;;7.47;6.67;;;;;;;1.33;100.00;101506.22;5070690;28;20197;-71
2022/01/19 06:57:05;;;;;;;7.57;6.87;;;;;;;1.32;100.00;101499.19;5069437;28;20170;-72
2022/01/19 06:59:31;;;;;;;4.97;4.57;;;;;;;1.35;100.00;101479.88;5069287;28;20170;-71
2022/01/19 07:01:56;;;;;;;6.40;5.07;;;;;;;1.37;100.00;101485.84;5069517;28;20178;-71
2022/01/19 07:04:21;;;;;;;7.67;6.97;;;;;;;1.36;100.00;101482.34;5070592;28;20228;-72
2022/01/19 07:06:47;;;;;;;6.77;6.17;;;;;;;1.40;100.00;101472.75;5070505;28;20665;-75
2022/01/19 07:09:12;;;;;;;1.97;1.87;;;;;;;1.54;100.00;101468.03;5070669;28;20693;-74
2022/01/19 07:11:38;;;;;;;5.57;5.13;;;;;;;1.51;100.00;101475.75;5070742;28;20517;-74
2022/01/19 07:14:05;;;;;;;5.07;4.67;;;;;;;1.49;100.00;101451.75;5069315;28;20257;-74
2022/01/19 07:16:30;;;;;;;6.20;5.60;;;;;;;1.55;100.00;101458.09;5070305;28;20162;-75
2022/01/19 07:18:56;;;;;;;6.60;5.03;;;;;;;1.48;100.00;101459.00;5070512;28;20409;-72
2022/01/19 07:21:21;;;;;;;6.20;5.37;;;;;;;1.49;100.00;101451.75;5070530;28;20182;-74
2022/01/19 07:23:47;;;;;;;5.63;5.13;;;;;;;1.47;100.00;101430.44;5069236;28;20289;-75
2022/01/19 07:26:12;;;;;;;18.97;12.40;;;;;;;1.39;100.00;101419.16;5070291;28;20682;-74
2022/01/19 07:28:37;;;;;;;8.10;7.30;;;;;;;1.49;100.00;101414.88;5073432;28;20209;-72
2022/01/19 07:31:03;;;;;;;6.83;6.23;;;;;;;1.51;100.00;101408.44;5074549;28;20533;-72
2022/01/19 07:33:28;;;;;;;7.00;6.40;;;;;;;1.43;100.00;101418.47;5073175;28;20622;-72
2022/01/19 07:35:54;;;;;;;7.17;6.57;;;;;;;1.44;100.00;101412.03;5074294;28;20653;-71
2022/01/19 07:38:20;;;;;;;9.60;6.90;;;;;;;1.38;100.00;101410.25;5074332;28;20182;-72
2022/01/19 07:40:45;;;;;;;6.97;6.27;;;;;;;1.40;100.00;101418.09;5072746;28;20179;-73
2022/01/19 07:43:11;;;;;;;7.63;6.93;;;;;;;1.39;100.00;101411.06;5074529;28;20175;-72
2022/01/19 07:45:36;;;;;;;8.00;7.30;;;;;;;1.39;100.00;101401.13;5074076;28;20540;-74
2022/01/19 07:48:02;;;;;;;8.07;7.33;;;;;;;1.45;100.00;101410.19;5074097;28;20170;-72
2022/01/19 07:50:27;;;;;;;8.40;7.17;;;;;;;1.44;100.00;101413.91;5072606;28;20271;-72
2022/01/19 07:52:53;;;;;;;6.50;6.00;;;;;;;1.52;100.00;101415.47;5072927;28;20186;-72
2022/01/19 07:55:18;;;;;;;6.07;5.47;;;;;;;1.72;100.00;101438.38;5072566;28;20209;-72
2022/01/19 07:57:49;;;;;;;6.13;5.53;;;;;;;1.86;100.00;101430.09;5074089;28;20174;-72
2022/01/19 08:00:15;;;;;;;4.47;4.07;;;;;;;1.87;100.00;101445.22;5073916;28;20173;-72
2022/01/19 08:02:40;;;;;;;0.80;0.80;;;;;;;1.91;100.00;101443.72;5073837;28;20413;-75
2022/01/19 08:05:07;;;;;;;1.07;1.07;;;;;;;1.92;100.00;101445.38;5073594;28;20661;-75
2022/01/19 08:07:33;;;;;;;5.27;4.47;;;;;;;1.93;100.00;101438.94;5073759;28;20174;-75
2022/01/19 08:10:00;;;;;;;8.13;4.00;;;;;;;1.96;100.00;101433.91;5073554;28;20843;-74
2022/01/19 08:12:25;;;;;;;6.27;5.67;;;;;;;1.97;100.00;101421.25;5072755;28;20650;-75
2022/01/19 08:14:51;;;;;;;6.53;5.93;;;;;;;2.02;100.00;101430.28;5073562;28;20415;-75
2022/01/19 08:17:17;;;;;;;7.57;5.20;;;;;;;2.11;100.00;101443.44;5072328;28;20225;-73
2022/01/19 08:19:42;;;;;;;6.70;6.10;;;;;;;2.15;100.00;101431.13;5073577;28;20174;-74
2022/01/19 08:22:07;;;;;;;6.20;5.70;;;;;;;2.18;100.00;101438.78;5073472;28;20694;-72
2022/01/19 08:24:33;;;;;;;7.53;5.97;;;;;;;2.26;100.00;101441.94;5072910;28;20191;-74
2022/01/19 08:26:59;;;;;;;7.47;6.77;;;;;;;2.20;100.00;101440.19;5071670;28;20170;-72
2022/01/19 08:29:24;;;;;;;7.77;7.07;;;;;;;2.14;100.00;101443.78;5073403;28;20582;-72
2022/01/19 08:31:50;;;;;;;7.10;6.40;;;;;;;2.22;100.00;101446.16;5071935;28;20198;-72
2022/01/19 08:34:17;;;;;;;2.10;1.90;;;;;;;2.36;100.00;101455.69;5072085;28;20550;-74
2022/01/19 08:36:43;;;;;;;6.53;4.33;;;;;;;2.41;100.00;101462.25;5073192;28;20559;-72
2022/01/19 08:39:08;;;;;;;5.03;4.63;;;;;;;2.34;100.00;101456.97;5072144;28;20220;-74
2022/01/19 08:41:36;;;;;;;3.90;3.47;;;;;;;2.33;100.00;101445.38;5072858;28;20174;-74
2022/01/19 08:44:02;;;;;;;1.37;1.03;;;;;;;2.33;100.00;101453.47;5073009;28;20188;-74
2022/01/19 08:46:28;;;;;;;4.43;4.03;;;;;;;2.34;100.00;101452.41;5071546;28;20673;-75
2022/01/19 08:48:53;;;;;;;4.60;4.03;;;;;;;2.36;100.00;101461.06;5071686;28;20291;-74
2022/01/19 08:51:19;;;;;;;3.20;2.67;;;;;;;2.34;100.00;101448.88;5071553;28;20556;-76
2022/01/19 08:53:44;;;;;;;1.50;1.40;;;;;;;2.32;100.00;101453.69;5071119;28;20638;-74
2022/01/19 08:56:10;;;;;;;1.80;1.67;;;;;;;2.26;100.00;101452.72;5072630;28;20182;-74
2022/01/19 08:58:35;;;;;;;0.83;0.83;;;;;;;2.24;100.00;101435.97;5072917;28;20173;-78
2022/01/19 09:01:00;;;;;;;1.70;1.60;;;;;;;2.24;100.00;101435.97;5071498;28;20634;-74
2022/01/19 09:03:26;;;;;;;0.10;0.10;;;;;;;2.23;100.00;101417.31;5071524;28;20288;-74
2022/01/19 09:05:51;;;;;;;1.23;1.13;;;;;;;2.22;100.00;101426.47;5072543;28;20599;-75
2022/01/19 09:08:17;;;;;;;1.77;1.67;;;;;;;2.19;100.00;101416.97;5072656;28;20171;-74
2022/01/19 09:10:42;;;;;;;1.13;1.13;;;;;;;2.21;100.00;101420.25;5072674;28;20210;-74
2022/01/19 09:13:09;;;;;;;2.23;1.90;;;;;;;2.25;100.00;101417.91;5072685;28;20182;-74
2022/01/19 09:15:35;;;;;;;1.63;1.57;;;;;;;2.26;100.00;101416.84;5071001;28;20530;-75
2022/01/19 09:18:00;;;;;;;1.80;1.53;;;;;;;2.25;100.00;101416.03;5072280;28;20216;-74
2022/01/19 09:20:26;;;;;;;0.60;0.60;;;;;;;2.26;100.00;101419.56;5072356;28;20792;-74
2022/01/19 09:22:51;;;;;;;3.43;3.13;;;;;;;2.30;100.00;101416.16;5072297;28;20198;-74
2022/01/19 09:25:17;;;;;;;1.30;1.27;;;;;;;2.33;100.00;101425.66;5072316;28;20210;-74
2022/01/19 09:27:44;;;;;;;1.17;1.17;;;;;;;2.32;100.00;101416.75;5070754;28;20183;-75
2022/01/19 09:30:14;;;;;;;5.83;2.43;;;;;;;2.34;100.00;101411.13;5072113;28;20210;-75
2022/01/19 09:32:40;;;;;;;2.87;2.67;;;;;;;2.44;100.00;101407.84;5070892;28;20192;-74
2022/01/19 09:35:09;;;;;;;3.30;2.50;;;;;;;2.50;100.00;101412.31;5071844;28;20166;-75
2022/01/19 09:37:36;;;;;;;3.10;2.67;;;;;;;2.52;100.00;101405.63;5072029;28;20205;-74
2022/01/19 09:40:03;;;;;;;1.60;1.50;;;;;;;2.56;100.00;101387.09;5067762;28;20304;-74
2022/01/19 09:42:28;;;;;;;2.23;2.07;;;;;;;2.58;100.00;101401.16;5073872;28;20658;-73
2022/01/19 09:44:53;;;;;;;1.53;1.43;;;;;;;2.61;100.00;101387.22;5081940;28;20176;-74
2022/01/19 09:47:19;;;;;;;1.07;1.07;;;;;;;2.59;100.00;101395.53;5073440;28;20181;-74
2022/01/19 09:49:45;;;;;;;3.30;3.00;;;;;;;2.59;100.00;101378.53;5071746;28;20208;-74
2022/01/19 09:52:10;;;;;;;2.60;2.40;;;;;;;2.63;100.00;101377.84;5070913;28;20183;-74
2022/01/19 09:54:36;;;;;;;2.97;2.73;;;;;;;2.69;100.00;101374.19;5071680;28;20185;-74
2022/01/19 09:57:02;;;;;;;2.80;2.60;;;;;;;2.80;100.00;101374.41;5071623;28;20166;-72
2022/01/19 09:59:27;;;;;;;3.30;2.97;;;;;;;2.80;100.00;101380.63;5070335;28;20634;-74
2022/01/19 10:02:06;;;;;;;2.27;2.07;;;;;;;2.89;100.00;101370.28;5071497;28;20162;-76
2022/01/19 10:04:35;;;;;;;3.40;3.20;;;;;;;2.89;100.00;101368.44;5070171;28;20174;-76
2022/01/19 10:07:13;;;;;;;3.20;2.90;;;;;;;2.90;100.00;101359.28;5069864;28;20581;-76
2022/01/19 10:09:48;;;;;;;2.73;2.53;;;;;;;3.01;100.00;101362.97;5071101;28;20721;-74
2022/01/19 10:17:55;;;;;;;2.73;2.53;;;;;;;3.02;100.00;101347.59;5071532;28;20640;-74
2022/01/19 10:20:22;;;;;;;3.07;2.70;;;;;;;2.99;100.00;101346.22;5071286;28;20185;-77
2022/01/19 10:22:48;;;;;;;0.23;0.23;;;;;;;3.04;100.00;101334.69;5071120;28;20166;-77
2022/01/19 10:25:13;;;;;;;1.40;1.30;;;;;;;3.07;100.00;101329.66;5071172;28;20178;-75
2022/01/19 10:27:39;;;;;;;2.87;2.67;;;;;;;3.05;100.00;101314.75;5071071;28;20254;-74
2022/01/19 10:30:05;;;;;;;3.90;2.33;;;;;;;3.09;100.00;101305.94;5069574;28;20214;-74
2022/01/19 10:32:52;;;;;;;0.30;0.30;;;;;;;3.09;100.00;101300.53;5069662;28;20541;-74
2022/01/19 10:35:32;;;;;;;1.03;1.03;;;;;;;3.16;100.00;101297.66;5069156;28;20662;-73
2022/01/19 10:38:16;;;;;;;1.20;1.10;;;;;;;3.18;100.00;101291.00;5070806;28;20174;-73
2022/01/19 10:41:07;;;;;;;1.70;1.33;;;;;;;3.20;100.00;101279.94;5070726;28;20179;-73
2022/01/19 10:43:42;;;;;;;2.90;2.70;;;;;;;3.18;100.00;101273.94;5069380;28;20639;-73
2022/01/19 10:46:26;;;;;;;0.83;0.77;;;;;;;3.21;100.00;101274.31;5069314;28;20599;-73
2022/01/19 10:49:01;;;;;;;2.57;2.40;;;;;;;3.25;100.00;101280.03;5070539;28;20194;-73
2022/01/19 10:51:30;;;;;;;3.90;3.50;;;;;;;3.23;100.00;101261.38;5071065;28;20177;-73
2022/01/19 10:54:15;;;;;;;1.73;1.63;;;;;;;3.31;100.00;101276.34;5069629;28;20174;-73
2022/01/19 10:56:42;;;;;;;1.27;1.17;;;;;;;3.34;100.00;101267.78;5070534;28;20626;-73
2022/01/19 10:59:12;;;;;;;3.70;3.40;;;;;;;3.33;100.00;101260.75;5069401;28;20189;-73
2022/01/19 11:01:45;;;;;;;1.17;1.17;;;;;;;3.32;99.53;101258.28;5070625;28;20175;-73
2022/01/19 11:04:19;;;;;;;1.13;1.03;;;;;;;3.32;99.53;101260.97;5069434;28;20259;-73
2022/01/19 11:06:47;;;;;;;2.80;2.13;;;;;;;3.28;99.81;101244.44;5069222;28;20185;-73
2022/01/19 11:09:14;;;;;;;0.83;0.73;;;;;;;3.25;99.64;101251.16;5070579;28;20210;-73
2022/01/19 11:11:43;;;;;;;3.00;2.73;;;;;;;3.20;99.68;101244.84;5069308;28;20193;-73
2022/01/19 11:14:09;;;;;;;1.30;1.30;;;;;;;3.20;100.00;101232.16;5069460;28;20285;-73
2022/01/19 11:16:35;;;;;;;1.53;1.17;;;;;;;3.18;100.00;101236.16;5070362;28;20232;-73
2022/01/19 11:19:00;;;;;;;0.70;0.70;;;;;;;3.12;100.00;101226.34;5070644;28;20188;-73
2022/01/19 11:21:32;;;;;;;1.23;1.03;;;;;;;3.06;100.00;101222.72;5070023;28;20206;-73
2022/01/19 11:24:08;;;;;;;2.53;2.43;;;;;;;2.99;100.00;101208.56;5079587;28;20191;-73
2022/01/19 11:26:35;;;;;;;0.80;0.80;;;;;;;2.97;100.00;101207.97;5069584;28;20174;-73
2022/01/19 11:29:14;;;;;;;1.33;1.13;;;;;;;2.91;100.00;101196.28;5071046;28;20285;-73
2022/01/19 11:31:40;;;;;;;1.67;1.57;;;;;;;2.92;100.00;101197.09;5070490;28;20188;-73
2022/01/19 11:34:05;;;;;;;1.30;1.23;;;;;;;2.89;100.00;101206.50;5070876;28;20170;-73
2022/01/19 11:36:39;;;;;;;0.90;0.90;;;;;;;2.90;100.00;101199.22;5070282;28;20224;-73
2022/01/19 11:39:19;;;;;;;3.47;3.17;;;;;;;2.88;100.00;101194.03;5068657;28;20171;-73
2022/01/19 11:41:51;;;;;;;0.93;0.93;;;;;;;2.87;100.00;101191.59;5069203;28;20699;-73
2022/01/19 11:44:32;;;;;;;0.50;0.47;;;;;;;2.90;100.00;101196.53;5069312;28;20541;-73
2022/01/19 11:47:24;;;;;;;1.70;1.60;;;;;;;2.87;100.00;101189.72;5069856;28;20171;-73
2022/01/19 11:49:50;;;;;;;2.43;1.70;;;;;;;2.88;100.00;101183.25;5064567;28;20220;-73
2022/01/19 11:52:19;;;;;;;2.60;2.40;;;;;;;2.89;100.00;101173.28;5068969;28;20269;-73
2022/01/19 11:54:45;;;;;;;0.97;0.97;;;;;;;2.90;100.00;101170.38;5069870;28;20265;-73
2022/01/19 11:57:17;;;;;;;0.67;0.67;;;;;;;2.91;100.00;101152.28;5069921;28;20214;-73
2022/01/19 11:59:45;;;;;;;0.90;0.90;;;;;;;2.95;100.00;101153.44;5070156;28;20189;-73
2022/01/19 12:02:26;;;;;;;1.00;0.80;;;;;;;2.97;100.00;101146.72;5068703;28;20567;-73
2022/01/19 12:04:57;;;;;;;2.77;1.17;;;;;;;2.94;100.00;101141.81;5069677;28;20205;-73
2022/01/19 12:07:42;;;;;;;1.63;1.53;;;;;;;2.94;99.70;101114.84;5070254;28;20614;-73
2022/01/19 12:10:14;;;;;;;1.47;1.37;;;;;;;2.91;99.89;101115.31;5069875;28;20244;-73
2022/01/19 12:12:53;;;;;;;1.93;1.83;;;;;;;2.94;99.82;101095.13;5068516;28;20182;-73
2022/01/19 12:15:49;;;;;;;3.70;3.37;;;;;;;2.95;99.76;101059.78;5070923;28;20174;-73
2022/01/19 12:18:36;;;;;;;4.43;2.70;;;;;;;2.97;99.68;101044.16;5073383;28;20627;-73
2022/01/19 12:21:02;;;;;;;2.93;2.73;;;;;;;3.02;99.68;101038.03;5072052;28;20174;-73
2022/01/19 12:23:29;;;;;;;3.73;3.43;;;;;;;2.99;98.47;101019.63;5073180;28;20657;-73
2022/01/19 12:25:56;;;;;;;2.97;2.77;;;;;;;2.97;97.70;101022.56;5072979;28;20757;-73
2022/01/19 12:28:47;;;;;;;2.60;2.40;;;;;;;2.95;98.79;101008.50;5073015;28;20274;-73
2022/01/19 12:31:24;;;;;;;2.67;2.47;;;;;;;2.92;97.99;101005.50;5071963;28;20193;-73
2022/01/19 12:34:10;;;;;;;2.63;2.43;;;;;;;2.89;98.17;101006.81;5071924;28;20297;-73
2022/01/19 12:37:02;;;;;;;2.83;2.63;;;;;;;2.89;98.62;101006.81;5071684;28;20664;-73
2022/01/19 12:39:28;;;;;;;5.37;2.60;;;;;;;2.91;98.79;101006.56;5070653;28;20211;-73
2022/01/19 12:42:04;;;;;;;3.03;2.83;;;;;;;2.91;98.75;101009.25;5073118;28;20651;-73
2022/01/19 12:44:35;;;;;;;0.77;0.70;;;;;;;2.92;98.38;101005.50;5073017;28;20170;-73
2022/01/19 12:47:24;;;;;;;1.13;1.13;;;;;;;2.93;98.02;100993.63;5072599;28;20645;-73
2022/01/19 12:49:51;;;;;;;1.40;1.33;;;;;;;2.92;97.63;100998.22;5072646;28;20647;-73
2022/01/19 12:52:17;;;;;;;1.67;1.57;;;;;;;2.95;98.04;100996.91;5072773;28;20178;-73
2022/01/19 12:54:42;;;;;;;0.40;0.40;;;;;;;2.95;98.14;100991.50;5071179;28;20179;-73
2022/01/19 12:57:13;;;;;;;1.73;1.63;;;;;;;2.99;97.69;100996.16;5072700;28;20388;-73
2022/01/19 12:59:38;;;;;;;3.37;3.17;;;;;;;3.00;97.52;100991.56;5071588;28;20689;-73